createdAt,value
2018-10-17T00:00:15.595Z,87.48
2018-10-17T00:01:25.733Z,87.48
2018-10-17T00:02:35.809Z,87.86
2018-10-17T00:03:45.636Z,87.66
2018-10-17T00:04:55.763Z,87.38
2018-10-17T00:06:06.769Z,87.48
2018-10-17T00:07:17.207Z,87.86
2018-10-17T00:08:27.426Z,87.48
2018-10-17T00:09:37.526Z,87.66
2018-10-17T00:10:47.599Z,87.48
2018-10-17T00:11:57.767Z,87.91
2018-10-17T00:13:08.046Z,87.24
2018-10-17T00:14:18.625Z,88.01
2018-10-17T00:15:28.718Z,87.91
2018-10-17T00:16:38.795Z,88.01
2018-10-17T00:17:48.881Z,87.43
2018-10-17T00:18:58.460Z,87.43
2018-10-17T00:20:08.856Z,87.62
2018-10-17T00:21:18.925Z,87.82
2018-10-17T00:22:28.752Z,87.62
2018-10-17T00:23:38.951Z,87.82
2018-10-17T00:24:49.055Z,87.62
2018-10-17T00:25:59.300Z,87.53
2018-10-17T00:27:09.106Z,87.62
2018-10-17T00:28:18.923Z,87.62
2018-10-17T00:29:29.239Z,87.34
2018-10-17T00:30:39.354Z,87.82
2018-10-17T00:31:49.416Z,87.82
2018-10-17T00:32:59.223Z,87.34
2018-10-17T00:34:09.299Z,87.53
2018-10-17T00:35:19.066Z,87.24
2018-10-17T00:36:29.163Z,87.43
2018-10-17T00:37:39.253Z,87.34
2018-10-17T00:38:49.330Z,87.62
2018-10-17T00:39:59.407Z,87.62
2018-10-17T00:41:12.134Z,87.43
2018-10-17T00:42:22.630Z,87.43
2018-10-17T00:43:32.718Z,87.34
2018-10-17T00:44:42.885Z,87.43
2018-10-17T00:45:53.057Z,87.62
2018-10-17T00:47:03.772Z,87.62
2018-10-17T00:48:13.886Z,87.62
2018-10-17T00:49:23.957Z,87.91
2018-10-17T00:50:34.089Z,87.82
2018-10-17T00:51:43.888Z,88.01
2018-10-17T00:52:54.060Z,88.01
2018-10-17T00:54:04.400Z,87.82
2018-10-17T00:55:14.721Z,88.01
2018-10-17T00:56:24.921Z,87.82
2018-10-17T00:57:34.715Z,87.53
2018-10-17T00:58:44.793Z,87.53
2018-10-17T00:59:54.867Z,87.53
2018-10-17T01:01:05.481Z,87.34
2018-10-17T01:02:16.137Z,87.82
2018-10-17T01:03:25.693Z,87.43
2018-10-17T01:04:35.774Z,87.34
2018-10-17T01:05:45.905Z,87.43
2018-10-17T01:06:56.369Z,87.34
2018-10-17T01:08:06.717Z,87.43
2018-10-17T01:09:16.793Z,87.29
2018-10-17T01:10:26.884Z,87.39
2018-10-17T01:11:36.956Z,87.96
2018-10-17T01:12:47.093Z,87.43
2018-10-17T01:13:57.295Z,87.96
2018-10-17T01:15:06.854Z,87.87
2018-10-17T01:16:16.923Z,87.77
2018-10-17T01:17:26.989Z,87.77
2018-10-17T01:18:36.842Z,87.58
2018-10-17T01:19:46.921Z,87.68
2018-10-17T01:20:57.005Z,87.96
2018-10-17T01:22:07.088Z,87.48
2018-10-17T01:23:17.564Z,87.39
2018-10-17T01:24:27.710Z,87.58
2018-10-17T01:25:37.767Z,87.39
2018-10-17T01:26:47.843Z,87.29
2018-10-17T01:27:57.932Z,87.39
2018-10-17T01:29:10.136Z,87.58
2018-10-17T01:30:20.915Z,87.58
2018-10-17T01:31:31.017Z,87.58
2018-10-17T01:32:41.087Z,87.39
2018-10-17T01:33:51.161Z,87.39
2018-10-17T01:35:01.394Z,87.29
2018-10-17T01:36:11.878Z,87.48
2018-10-17T01:37:21.961Z,87.96
2018-10-17T01:38:32.051Z,87.58
2018-10-17T01:39:42.313Z,87.39
2018-10-17T01:40:52.147Z,87.48
2018-10-17T01:42:02.186Z,87.77
2018-10-17T01:43:12.077Z,87.96
2018-10-17T01:44:22.748Z,87.77
2018-10-17T01:45:32.999Z,87.2
2018-10-17T01:46:42.824Z,87.58
2018-10-17T01:47:52.966Z,87.39
2018-10-17T01:49:03.374Z,87.58
2018-10-17T01:50:13.374Z,87.58
2018-10-17T01:51:23.448Z,87.77
2018-10-17T01:52:33.532Z,87.82
2018-10-17T01:53:43.840Z,87.48
2018-10-17T01:54:54.165Z,87.48
2018-10-17T01:56:04.200Z,87.29
2018-10-17T01:57:14.282Z,87.87
2018-10-17T01:58:24.097Z,86.91
2018-10-17T01:59:34.235Z,87.87
2018-10-17T02:00:44.314Z,87.39
2018-10-17T02:01:54.223Z,87.77
2018-10-17T02:03:04.310Z,87.58
2018-10-17T02:04:13.866Z,87.29
2018-10-17T02:05:24.003Z,87.58
2018-10-17T02:06:34.076Z,87.58
2018-10-17T02:07:44.188Z,87.58
2018-10-17T02:08:54.280Z,87.48
2018-10-17T02:10:06.383Z,87.58
2018-10-17T02:11:16.854Z,87.58
2018-10-17T02:12:27.028Z,87.96
2018-10-17T02:13:36.908Z,87.48
2018-10-17T02:14:47.217Z,87.96
2018-10-17T02:15:59.668Z,87.77
2018-10-17T02:17:10.034Z,87.96
2018-10-17T02:18:20.075Z,87.29
2018-10-17T02:19:30.162Z,87.29
2018-10-17T02:20:40.232Z,87.77
2018-10-17T02:21:50.665Z,87.29
2018-10-17T02:24:40.120Z,87.29
2018-10-17T02:25:50.194Z,87.77
2018-10-17T02:27:02.912Z,87.39
2018-10-17T02:28:12.464Z,87.39
2018-10-17T02:29:22.272Z,87.54
2018-10-17T02:30:32.402Z,87.58
2018-10-17T02:31:42.484Z,87.58
2018-10-17T02:32:52.046Z,87.39
2018-10-17T02:34:02.350Z,87.48
2018-10-17T02:35:12.610Z,87.77
2018-10-17T02:36:23.222Z,87.54
2018-10-17T02:37:33.324Z,87.58
2018-10-17T02:38:43.151Z,87.77
2018-10-17T02:39:53.208Z,87.73
2018-10-17T02:41:04.376Z,87.35
2018-10-17T02:42:14.929Z,87.25
2018-10-17T02:43:25.008Z,87.54
2018-10-17T02:44:35.088Z,87.39
2018-10-17T02:45:45.151Z,87.54
2018-10-17T02:46:55.546Z,87.35
2018-10-17T02:48:08.498Z,87.39
2018-10-17T02:49:18.853Z,87.39
2018-10-17T02:50:29.029Z,87.35
2018-10-17T02:51:39.106Z,87.29
2018-10-17T02:52:49.222Z,87.35
2018-10-17T02:53:59.526Z,87.77
2018-10-17T02:55:09.879Z,87.96
2018-10-17T02:56:20.236Z,87.73
2018-10-17T02:57:30.064Z,88.01
2018-10-17T02:58:40.168Z,87.73
2018-10-17T02:59:50.261Z,87.92
2018-10-17T03:01:00.857Z,87.92
2018-10-17T03:02:11.057Z,87.92
2018-10-17T03:34:46.028Z,82.08
2018-10-17T03:35:56.058Z,82.27
2018-10-17T03:37:06.504Z,82.65
2018-10-17T03:38:16.584Z,83.13
2018-10-17T03:39:26.394Z,84.08
2018-10-17T03:40:36.181Z,84.94
2018-10-17T03:41:46.268Z,85.41
2018-10-17T03:42:56.435Z,85.99
2018-10-17T03:44:06.676Z,86.27
2018-10-17T03:45:16.494Z,86.79
2018-10-17T03:46:26.617Z,86.6
2018-10-17T03:47:36.675Z,87.07
2018-10-17T03:48:47.978Z,86.69
2018-10-17T03:49:57.571Z,87.17
2018-10-17T03:51:08.033Z,87.12
2018-10-17T03:52:18.130Z,87.02
2018-10-17T03:53:28.236Z,87.6
2018-10-17T03:54:38.332Z,87.69
2018-10-17T03:55:48.152Z,87.69
2018-10-17T03:56:58.219Z,87.6
2018-10-17T03:58:07.786Z,87.54
2018-10-17T03:59:17.852Z,86.98
2018-10-17T04:00:29.000Z,86.88
2018-10-17T04:01:39.080Z,87.16
2018-10-17T04:02:48.951Z,87.07
2018-10-17T04:03:59.345Z,87.16
2018-10-17T04:05:09.304Z,87.07
2018-10-17T04:06:19.846Z,86.78
2018-10-17T04:07:29.926Z,86.98
2018-10-17T04:08:40.018Z,86.92
2018-10-17T04:09:50.208Z,87.21
2018-10-17T04:11:00.357Z,86.82
2018-10-17T04:12:10.780Z,86.92
2018-10-17T04:13:21.002Z,87.11
2018-10-17T04:14:31.079Z,87.02
2018-10-17T04:15:41.186Z,87.11
2018-10-17T04:16:51.314Z,86.92
2018-10-17T04:18:02.009Z,86.92
2018-10-17T04:19:12.221Z,87.3
2018-10-17T04:20:22.837Z,86.92
2018-10-17T04:21:32.931Z,87.11
2018-10-17T04:22:43.301Z,86.92
2018-10-17T04:23:53.643Z,86.92
2018-10-17T04:25:03.904Z,87.02
2018-10-17T04:26:14.483Z,87.15
2018-10-17T04:27:24.342Z,87.59
2018-10-17T04:28:34.161Z,87.11
2018-10-17T04:29:44.253Z,87.15
2018-10-17T04:30:54.205Z,87.11
2018-10-17T04:32:05.377Z,87.06
2018-10-17T04:33:15.498Z,87.15
2018-10-17T04:34:25.613Z,87.06
2018-10-17T04:35:35.717Z,87.82
2018-10-17T04:36:45.850Z,87.73
2018-10-17T04:37:55.988Z,87.92
2018-10-17T04:39:08.321Z,87.82
2018-10-17T04:40:18.130Z,87.35
2018-10-17T04:41:28.186Z,87.44
2018-10-17T04:42:38.019Z,87.73
2018-10-17T04:43:47.861Z,87.21
2018-10-17T04:44:57.401Z,87.3
2018-10-17T04:46:07.474Z,87.49
2018-10-17T04:47:17.765Z,87.87
2018-10-17T04:48:27.686Z,87.78
2018-10-17T04:49:37.297Z,87.87
2018-10-17T04:50:47.379Z,87.21
2018-10-17T04:51:57.191Z,87.4
2018-10-17T04:53:07.413Z,87.87
2018-10-17T04:54:18.000Z,87.11
2018-10-17T04:55:28.117Z,87.54
2018-10-17T04:56:38.228Z,87.15
2018-10-17T04:57:48.313Z,87.35
2018-10-17T04:58:58.487Z,87.49
2018-10-17T05:00:11.034Z,87.54
2018-10-17T05:01:21.107Z,87.73
2018-10-17T05:02:30.969Z,87.4
2018-10-17T05:03:41.067Z,87.68
2018-10-17T05:04:51.648Z,87.25
2018-10-17T05:06:01.887Z,87.35
2018-10-17T05:07:12.039Z,87.44
2018-10-17T05:08:22.429Z,87.3
2018-10-17T05:09:32.299Z,87.25
2018-10-17T05:10:42.110Z,87.35
2018-10-17T05:11:52.201Z,87.44
2018-10-17T05:13:02.356Z,87.44
2018-10-17T05:14:12.905Z,87.82
2018-10-17T05:15:23.246Z,87.63
2018-10-17T05:16:33.473Z,87.15
2018-10-17T05:17:43.282Z,87.15
2018-10-17T05:18:53.424Z,87.25
2018-10-17T05:20:04.209Z,87.15
2018-10-17T05:21:14.531Z,86.96
2018-10-17T05:22:24.350Z,87.06
2018-10-17T05:23:34.449Z,87.06
2018-10-17T05:24:44.295Z,87.15
2018-10-17T05:25:54.428Z,86.96
2018-10-17T05:27:04.509Z,87.06
2018-10-17T05:28:14.637Z,87.06
2018-10-17T05:29:24.455Z,87.35
2018-10-17T05:30:34.563Z,87.06
2018-10-17T05:31:44.385Z,87.15
2018-10-17T05:32:54.521Z,87.15
2018-10-17T05:34:04.668Z,87.06
2018-10-17T05:35:15.032Z,87.15
2018-10-17T05:36:25.148Z,87.73
2018-10-17T05:37:35.471Z,87.73
2018-10-17T05:38:45.652Z,87.25
2018-10-17T05:39:55.544Z,87.54
2018-10-17T05:41:05.456Z,87.73
2018-10-17T05:42:15.069Z,87.73
2018-10-17T05:43:25.145Z,87.06
2018-10-17T05:44:35.544Z,87.06
2018-10-17T05:45:45.443Z,86.96
2018-10-17T05:46:55.580Z,87.44
2018-10-17T05:48:08.432Z,87.39
2018-10-17T05:49:18.726Z,86.82
2018-10-17T05:50:28.910Z,87.2
2018-10-17T05:51:38.976Z,86.91
2018-10-17T05:52:49.039Z,87.29
2018-10-17T05:53:59.187Z,86.72
2018-10-17T05:55:09.059Z,87.2
2018-10-17T05:56:19.795Z,86.82
2018-10-17T05:57:29.878Z,86.91
2018-10-17T05:58:39.991Z,86.53
2018-10-17T05:59:49.553Z,86.72
2018-10-17T06:01:00.000Z,86.82
2018-10-17T06:02:10.735Z,86.86
2018-10-17T06:03:21.668Z,86.72
2018-10-17T06:04:31.812Z,86.86
2018-10-17T06:05:41.917Z,86.76
2018-10-17T06:06:52.021Z,86.67
2018-10-17T06:08:02.239Z,86.86
2018-10-17T06:09:12.326Z,86.76
2018-10-17T06:10:22.671Z,87.05
2018-10-17T06:11:33.150Z,86.76
2018-10-17T06:12:43.257Z,86.57
2018-10-17T06:13:53.082Z,86.86
2018-10-17T06:15:04.914Z,86.76
2018-10-17T06:16:15.233Z,86.67
2018-10-17T06:17:25.461Z,86.76
2018-10-17T06:18:35.297Z,86.71
2018-10-17T06:19:45.387Z,87
2018-10-17T06:20:55.450Z,86.8
2018-10-17T06:22:08.635Z,86.8
2018-10-17T06:23:18.743Z,86.52
2018-10-17T06:24:28.829Z,86.61
2018-10-17T06:25:38.631Z,87.48
2018-10-17T06:26:48.766Z,86.23
2018-10-17T06:27:58.914Z,86.43
2018-10-17T06:29:09.249Z,86.43
2018-10-17T06:30:19.985Z,86.23
2018-10-17T06:31:29.850Z,87.38
2018-10-17T06:32:39.914Z,87.52
2018-10-17T06:33:50.031Z,86.37
2018-10-17T06:35:00.503Z,86.57
2018-10-17T06:36:10.473Z,87.52
2018-10-17T06:37:20.414Z,86.37
2018-10-17T06:38:30.226Z,86.37
2018-10-17T06:39:40.298Z,87.43
2018-10-17T06:40:50.396Z,87.04
2018-10-17T06:42:00.546Z,86.85
2018-10-17T06:43:10.625Z,86.76
2018-10-17T06:44:20.791Z,86.66
2018-10-17T06:45:30.598Z,86.18
2018-10-17T06:46:40.837Z,86.13
2018-10-17T06:47:50.923Z,86.41
2018-10-17T06:49:01.165Z,86.13
2018-10-17T06:50:11.676Z,86.13
2018-10-17T06:51:21.947Z,86.04
2018-10-17T06:52:31.511Z,85.98
2018-10-17T06:53:41.634Z,85.6
2018-10-17T06:54:51.994Z,85.88
2018-10-17T06:56:02.309Z,86.27
2018-10-17T06:57:12.404Z,85.98
2018-10-17T06:58:22.215Z,85.98
2018-10-17T06:59:32.291Z,85.6
2018-10-17T07:00:42.101Z,86.31
2018-10-17T07:01:52.531Z,85.93
2018-10-17T07:03:03.482Z,86.02
2018-10-17T07:04:13.539Z,85.74
2018-10-17T07:05:23.624Z,85.93
2018-10-17T07:06:33.450Z,86.02
2018-10-17T07:07:43.540Z,86.12
2018-10-17T07:08:53.724Z,86.41
2018-10-17T07:10:06.465Z,86.21
2018-10-17T07:11:17.150Z,86.69
2018-10-17T07:12:27.216Z,86.12
2018-10-17T07:13:37.400Z,86.21
2018-10-17T07:14:47.705Z,86.12
2018-10-17T07:15:57.713Z,85.97
2018-10-17T07:17:09.811Z,85.68
2018-10-17T07:18:20.400Z,85.63
2018-10-17T07:19:30.596Z,85.63
2018-10-17T07:20:40.423Z,85.97
2018-10-17T07:21:50.514Z,86.16
2018-10-17T07:23:02.189Z,86.07
2018-10-17T07:24:12.909Z,86.35
2018-10-17T07:25:23.262Z,86.45
2018-10-17T07:26:33.362Z,86.54
2018-10-17T07:27:43.450Z,86.25
2018-10-17T07:28:53.696Z,86.16
2018-10-17T07:30:05.144Z,86.16
2018-10-17T07:31:14.962Z,86.78
2018-10-17T07:32:24.940Z,86.93
2018-10-17T07:33:35.012Z,86.64
2018-10-17T07:34:44.818Z,86.74
2018-10-17T07:35:54.367Z,86.35
2018-10-17T07:37:04.596Z,86.49
2018-10-17T07:38:14.409Z,86.49
2018-10-17T07:39:24.489Z,86.4
2018-10-17T07:40:34.578Z,86.3
2018-10-17T07:41:44.667Z,86.11
2018-10-17T07:42:54.854Z,86.4
2018-10-17T07:44:04.943Z,86.4
2018-10-17T07:45:15.022Z,86.3
2018-10-17T07:46:25.099Z,86.3
2018-10-17T07:47:35.202Z,86.58
2018-10-17T07:48:45.288Z,86.3
2018-10-17T07:49:55.427Z,86.78
2018-10-17T07:51:08.282Z,86.34
2018-10-17T07:52:18.096Z,86.44
2018-10-17T07:53:28.371Z,86.63
2018-10-17T07:54:39.050Z,86.78
2018-10-17T07:55:49.114Z,86.68
2018-10-17T07:56:59.196Z,86.97
2018-10-17T07:58:09.291Z,86.78
2018-10-17T07:59:19.091Z,86.78
2018-10-17T08:00:29.418Z,86.88
2018-10-17T08:01:39.687Z,86.68
2018-10-17T08:02:49.509Z,86.97
2018-10-17T08:03:59.591Z,86.58
2018-10-17T08:05:09.409Z,86.15
2018-10-17T08:06:19.387Z,86.34
2018-10-17T08:07:29.690Z,86.44
2018-10-17T08:08:39.538Z,86.05
2018-10-17T08:09:49.371Z,85.96
2018-10-17T08:10:59.546Z,86.34
2018-10-17T08:12:09.914Z,85.96
2018-10-17T08:13:20.429Z,86.44
2018-10-17T08:14:30.550Z,86.25
2018-10-17T08:15:40.648Z,86.15
2018-10-17T08:16:50.740Z,86.34
2018-10-17T08:18:03.284Z,86.15
2018-10-17T08:19:13.363Z,86.15
2018-10-17T08:20:23.464Z,86.44
2018-10-17T08:21:33.845Z,86.63
2018-10-17T08:22:44.028Z,86.44
2018-10-17T08:23:53.954Z,86
2018-10-17T08:25:05.507Z,85.81
2018-10-17T08:26:15.607Z,85.42
2018-10-17T08:27:25.443Z,85.71
2018-10-17T08:28:36.163Z,85.81
2018-10-17T08:29:46.244Z,86.14
2018-10-17T08:30:56.424Z,85.85
2018-10-17T08:32:06.521Z,85.47
2018-10-17T08:33:16.735Z,85.47
2018-10-17T08:34:26.821Z,85.03
2018-10-17T08:35:37.212Z,85.03
2018-10-17T08:36:48.084Z,84.5
2018-10-17T08:37:59.831Z,84.5
2018-10-17T08:39:09.999Z,84.78
2018-10-17T08:40:20.074Z,84.78
2018-10-17T08:41:30.192Z,84.88
2018-10-17T08:42:40.025Z,84.63
2018-10-17T08:43:50.106Z,84.73
2018-10-17T08:45:00.529Z,85.11
2018-10-17T08:46:11.093Z,84.92
2018-10-17T08:47:20.712Z,84.73
2018-10-17T08:48:30.534Z,84.54
2018-10-17T08:49:40.351Z,85.31
2018-10-17T08:50:50.714Z,85.11
2018-10-17T08:52:00.648Z,85.21
2018-10-17T08:53:10.708Z,85.6
2018-10-17T08:54:20.816Z,85.69
2018-10-17T08:55:30.927Z,85.6
2018-10-17T08:56:40.737Z,85.78
2018-10-17T08:57:50.987Z,85.78
2018-10-17T08:59:01.602Z,85.94
2018-10-17T09:00:11.686Z,85.78
2018-10-17T09:01:21.611Z,86.18
2018-10-17T09:02:31.674Z,85.5
2018-10-17T09:03:41.508Z,85.6
2018-10-17T09:04:51.587Z,85.21
2018-10-17T09:06:01.494Z,84.87
2018-10-17T09:07:12.412Z,84.58
2018-10-17T09:08:22.672Z,84.62
2018-10-17T09:09:32.802Z,85.16
2018-10-17T09:10:42.886Z,85.64
2018-10-17T09:11:53.008Z,86.22
2018-10-17T09:13:03.611Z,86.56
2018-10-17T09:14:13.856Z,87.13
2018-10-17T09:15:24.330Z,87.19
2018-10-17T09:16:34.551Z,87.09
2018-10-17T09:17:44.701Z,87.23
2018-10-17T09:18:54.548Z,86.36
2018-10-17T09:20:06.532Z,86.08
2018-10-17T09:21:19.279Z,85.74
2018-10-17T09:22:30.269Z,86.22
2018-10-17T09:23:40.748Z,86.02
2018-10-17T09:24:50.892Z,86.12
2018-10-17T09:26:00.943Z,86.02
2018-10-17T09:27:11.030Z,85.93
2018-10-17T09:28:21.252Z,85.83
2018-10-17T09:29:31.345Z,85.83
2018-10-17T09:30:41.307Z,85.2
2018-10-17T09:31:52.123Z,84.66
2018-10-17T09:33:02.221Z,84.56
2018-10-17T09:34:12.240Z,84.9
2018-10-17T09:35:22.990Z,84.52
2018-10-17T09:36:33.579Z,84.9
2018-10-17T09:37:43.668Z,85.19
2018-10-17T09:38:53.769Z,85.28
2018-10-17T09:40:04.052Z,84.55
2018-10-17T09:41:14.642Z,84.55
2018-10-17T09:42:24.777Z,83.83
2018-10-17T09:43:34.846Z,84.59
2018-10-17T09:44:44.942Z,84.5
2018-10-17T09:45:55.124Z,83.92
2018-10-17T09:47:06.351Z,83.77
2018-10-17T09:48:16.682Z,83.77
2018-10-17T09:49:27.095Z,84.44
2018-10-17T09:50:36.940Z,83.77
2018-10-17T09:51:46.812Z,83.42
2018-10-17T09:52:57.018Z,83.42
2018-10-17T09:54:07.007Z,83.42
2018-10-17T09:55:17.444Z,84.14
2018-10-17T09:56:27.523Z,83.72
2018-10-17T09:57:37.683Z,84.2
2018-10-17T09:58:47.786Z,84.1
2018-10-17T09:59:57.660Z,84.58
2018-10-17T10:01:10.130Z,84.78
2018-10-17T10:02:20.203Z,85.12
2018-10-17T10:03:30.467Z,85.6
2018-10-17T10:04:40.565Z,86.04
2018-10-17T10:05:50.635Z,86.29
2018-10-17T10:07:02.809Z,86.73
2018-10-17T10:08:12.972Z,86.73
2018-10-17T10:09:23.287Z,86.82
2018-10-17T10:10:33.472Z,86.92
2018-10-17T10:11:43.581Z,86.44
2018-10-17T10:12:53.393Z,85.86
2018-10-17T10:14:03.478Z,86.15
2018-10-17T10:15:13.581Z,85.81
2018-10-17T10:16:23.780Z,85.71
2018-10-17T10:17:33.733Z,84.89
2018-10-17T10:18:43.917Z,84.98
2018-10-17T10:19:53.999Z,85.46
2018-10-17T10:21:03.575Z,85.94
2018-10-17T10:22:13.681Z,85.85
2018-10-17T10:23:24.046Z,85.66
2018-10-17T10:24:34.619Z,85.12
2018-10-17T10:25:44.926Z,85.12
2018-10-17T10:26:55.204Z,85.22
2018-10-17T10:28:06.258Z,85.12
2018-10-17T10:29:16.738Z,85.31
2018-10-17T10:30:27.064Z,85.02
2018-10-17T10:31:37.196Z,84.64
2018-10-17T10:32:47.260Z,84.68
2018-10-17T10:33:57.146Z,85.31
2018-10-17T10:35:07.516Z,84.93
2018-10-17T10:36:17.444Z,84.93
2018-10-17T10:37:27.642Z,85.31
2018-10-17T10:38:37.698Z,85.22
2018-10-17T10:39:47.871Z,85.22
2018-10-17T10:40:58.122Z,84.93
2018-10-17T10:42:08.310Z,85.45
2018-10-17T10:43:19.143Z,85.26
2018-10-17T10:44:28.956Z,85.5
2018-10-17T10:45:39.242Z,85.99
2018-10-17T10:46:49.048Z,85.89
2018-10-17T10:47:58.924Z,86.28
2018-10-17T10:49:09.684Z,85.99
2018-10-17T10:50:20.747Z,86.82
2018-10-17T10:51:31.035Z,86.43
2018-10-17T10:52:41.583Z,86.47
2018-10-17T10:53:52.005Z,86.08
2018-10-17T10:55:02.331Z,85.89
2018-10-17T10:56:12.647Z,86.18
2018-10-17T10:57:23.166Z,86.04
2018-10-17T10:58:33.597Z,86.04
2018-10-17T10:59:44.700Z,86.43
2018-10-17T11:00:54.864Z,86.04
2018-10-17T11:02:05.091Z,85.94
2018-10-17T11:03:14.810Z,86.24
2018-10-17T11:04:24.722Z,85.89
2018-10-17T11:05:35.644Z,85.99
2018-10-17T11:06:47.093Z,86.24
2018-10-17T11:07:57.267Z,85.85
2018-10-17T11:09:08.295Z,86.08
2018-10-17T11:10:18.367Z,86.18
2018-10-17T11:11:28.474Z,85.94
2018-10-17T11:12:38.556Z,86.33
2018-10-17T11:13:48.396Z,86.91
2018-10-17T11:14:59.339Z,86.62
2018-10-17T11:16:10.086Z,86.82
2018-10-17T11:17:20.199Z,86.72
2018-10-17T11:18:30.576Z,86.82
2018-10-17T11:19:40.663Z,86.04
2018-10-17T11:20:50.855Z,86.18
2018-10-17T11:22:00.774Z,85.99
2018-10-17T11:23:11.130Z,85.89
2018-10-17T11:24:21.617Z,85.8
2018-10-17T11:25:31.700Z,85.31
2018-10-17T11:26:41.816Z,85.45
2018-10-17T11:27:51.963Z,85.55
2018-10-17T11:29:01.827Z,85.06
2018-10-17T11:30:12.227Z,84.72
2018-10-17T11:31:22.433Z,84.53
2018-10-17T11:32:32.841Z,84.95
2018-10-17T11:33:42.677Z,85.49
2018-10-17T11:34:52.528Z,85.88
2018-10-17T11:36:02.471Z,86.27
2018-10-17T11:37:12.623Z,86.17
2018-10-17T11:38:23.030Z,86.27
2018-10-17T11:39:33.020Z,86.32
2018-10-17T11:40:43.466Z,86.71
2018-10-17T11:41:54.110Z,86.42
2018-10-17T11:43:04.470Z,86.22
2018-10-17T11:44:14.640Z,86.22
2018-10-17T11:45:24.770Z,86.27
2018-10-17T11:46:34.898Z,85.69
2018-10-17T11:47:45.143Z,85.69
2018-10-17T11:48:55.798Z,85.63
2018-10-17T11:50:08.590Z,85.05
2018-10-17T11:51:18.857Z,85.39
2018-10-17T11:52:29.041Z,84.8
2018-10-17T11:53:38.596Z,84.8
2018-10-17T11:54:48.690Z,84.61
2018-10-17T11:55:58.782Z,84.84
2018-10-17T11:57:08.960Z,84.56
2018-10-17T11:58:19.563Z,84.56
2018-10-17T11:59:29.786Z,84.94
2018-10-17T12:00:39.829Z,84.75
2018-10-17T12:01:49.964Z,84.99
2018-10-17T12:03:00.163Z,85.04
2018-10-17T12:04:11.190Z,85.24
2018-10-17T12:05:22.873Z,85.14
2018-10-17T12:06:35.246Z,85.24
2018-10-17T12:07:45.855Z,85.33
2018-10-17T12:08:55.193Z,85.82
2018-10-17T12:10:08.240Z,85.72
2018-10-17T12:11:18.178Z,86.1
2018-10-17T12:12:29.319Z,86.4
2018-10-17T12:13:39.494Z,86.25
2018-10-17T12:14:49.599Z,86.06
2018-10-17T12:15:59.467Z,86.25
2018-10-17T12:17:09.407Z,86.55
2018-10-17T12:18:19.430Z,86.25
2018-10-17T12:19:29.293Z,86.83
2018-10-17T12:20:39.477Z,86.45
2018-10-17T12:21:49.839Z,86.35
2018-10-17T12:22:59.948Z,86.83
2018-10-17T12:24:09.351Z,87.03
2018-10-17T12:25:19.840Z,86.89
2018-10-17T12:26:29.925Z,86.69
2018-10-17T12:27:40.217Z,86.89
2018-10-17T12:28:50.905Z,87.27
2018-10-17T12:30:01.738Z,87.62
2018-10-17T12:31:12.250Z,86.94
2018-10-17T12:32:22.343Z,87.52
2018-10-17T12:33:32.167Z,87.04
2018-10-17T12:34:42.013Z,86.65
2018-10-17T12:35:52.178Z,87.23
2018-10-17T12:37:03.056Z,86.75
2018-10-17T12:38:13.149Z,86.85
2018-10-17T12:39:23.267Z,87.13
2018-10-17T12:40:33.991Z,87.04
2018-10-17T12:41:45.128Z,87.04
2018-10-17T12:42:55.317Z,86.85
2018-10-17T12:44:05.305Z,87.04
2018-10-17T12:45:15.461Z,86.85
2018-10-17T12:46:25.740Z,86.75
2018-10-17T12:47:35.863Z,86.75
2018-10-17T12:48:46.041Z,87.13
2018-10-17T12:49:56.533Z,87.23
2018-10-17T12:51:06.817Z,87.13
2018-10-17T12:52:17.021Z,87.04
2018-10-17T12:53:27.374Z,87.23
2018-10-17T12:54:38.034Z,87.33
2018-10-17T12:55:47.860Z,87.19
2018-10-17T12:56:58.002Z,87.23
2018-10-17T12:58:08.385Z,86.65
2018-10-17T12:59:18.663Z,86.65
2018-10-17T13:00:28.890Z,86.85
2018-10-17T13:01:38.712Z,86.85
2018-10-17T13:02:48.815Z,87.43
2018-10-17T13:03:59.371Z,87.52
2018-10-17T13:05:09.568Z,87.67
2018-10-17T13:06:20.145Z,87.87
2018-10-17T13:07:30.237Z,87.87
2018-10-17T13:08:40.341Z,87.58
2018-10-17T13:09:50.501Z,87.63
2018-10-17T13:11:01.258Z,87.38
2018-10-17T13:12:11.964Z,87.58
2018-10-17T13:13:21.789Z,88.1
2018-10-17T13:14:32.121Z,87.87
2018-10-17T13:15:41.962Z,87.67
2018-10-17T13:16:52.087Z,87.87
2018-10-17T13:18:02.523Z,87.48
2018-10-17T13:19:12.545Z,87.67
2018-10-17T13:20:23.015Z,87.38
2018-10-17T13:21:33.109Z,87.77
2018-10-17T13:22:43.196Z,87.67
2018-10-17T13:23:53.328Z,87.96
2018-10-17T13:25:04.241Z,87.63
2018-10-17T13:26:14.811Z,88.31
2018-10-17T13:27:24.631Z,88.11
2018-10-17T13:28:34.845Z,88.21
2018-10-17T13:29:45.029Z,88.84
2018-10-17T13:30:55.160Z,88.59
2018-10-17T13:32:05.524Z,88.26
2018-10-17T13:33:15.649Z,88.07
2018-10-17T13:34:25.835Z,88.17
2018-10-17T13:35:36.071Z,88.26
2018-10-17T13:36:46.119Z,88.26
2018-10-17T13:37:56.051Z,88.26
2018-10-17T13:39:06.157Z,88.45
2018-10-17T13:40:16.352Z,88.26
2018-10-17T13:41:26.491Z,88.36
2018-10-17T13:42:36.565Z,87.97
2018-10-17T13:43:46.643Z,87.97
2018-10-17T13:44:56.789Z,87.82
2018-10-17T13:46:06.884Z,87.34
2018-10-17T13:47:17.333Z,86.61
2018-10-17T13:48:27.621Z,86.71
2018-10-17T13:49:37.996Z,86.85
2018-10-17T13:50:48.327Z,87.19
2018-10-17T13:51:58.397Z,87.38
2018-10-17T13:53:08.800Z,87.67
2018-10-17T13:54:19.469Z,87.38
2018-10-17T13:55:29.545Z,88.06
2018-10-17T13:56:39.383Z,87.87
2018-10-17T13:57:49.590Z,87.87
2018-10-17T13:59:02.954Z,87.67
2018-10-17T14:00:13.253Z,87.87
2018-10-17T14:01:23.072Z,87.96
2018-10-17T14:02:33.164Z,87.63
2018-10-17T14:03:43.248Z,87.92
2018-10-17T14:04:53.399Z,88.31
2018-10-17T14:06:04.529Z,88.79
2018-10-17T14:07:15.249Z,88.5
2018-10-17T14:08:25.676Z,88.4
2018-10-17T14:09:35.766Z,87.73
2018-10-17T14:10:45.886Z,87.63
2018-10-17T14:11:55.750Z,87.82
2018-10-17T14:13:05.868Z,87.87
2018-10-17T14:14:16.110Z,87.58
2018-10-17T14:15:26.188Z,87.77
2018-10-17T14:16:36.348Z,87.63
2018-10-17T14:17:46.177Z,87.96
2018-10-17T14:18:56.045Z,88.11
2018-10-17T14:20:05.894Z,88.02
2018-10-17T14:21:16.180Z,88.5
2018-10-17T14:22:25.897Z,88.5
2018-10-17T14:23:36.289Z,88.11
2018-10-17T14:24:46.823Z,88.26
2018-10-17T14:25:56.663Z,88.55
2018-10-17T14:27:06.637Z,88.75
2018-10-17T14:28:17.291Z,88.65
2018-10-17T14:29:27.590Z,88.84
2018-10-17T14:30:37.775Z,88.93
2018-10-17T14:31:47.861Z,88.84
2018-10-17T14:32:57.810Z,88.84
2018-10-17T14:34:07.887Z,88.6
2018-10-17T14:35:18.099Z,88.99
2018-10-17T14:36:28.781Z,88.79
2018-10-17T14:37:39.196Z,89.09
2018-10-17T14:38:49.513Z,89.18
2018-10-17T14:39:59.843Z,88.51
2018-10-17T14:41:09.824Z,88.41
2018-10-17T14:42:20.175Z,87.93
2018-10-17T14:43:30.447Z,87.64
2018-10-17T14:44:40.661Z,88.26
2018-10-17T14:45:50.558Z,87.93
2018-10-17T14:47:02.561Z,87.83
2018-10-17T14:48:12.554Z,88.02
2018-10-17T14:49:23.226Z,88.22
2018-10-17T14:50:33.049Z,88.41
2018-10-17T14:51:43.044Z,88.6
2018-10-17T14:52:53.208Z,88.12
2018-10-17T14:54:03.122Z,88.6
2018-10-17T14:55:12.943Z,88.27
2018-10-17T14:56:23.277Z,88.02
2018-10-17T14:57:33.896Z,88.22
2018-10-17T14:58:44.111Z,88.17
2018-10-17T14:59:53.968Z,88.17
2018-10-17T15:01:04.680Z,88.37
2018-10-17T15:02:14.781Z,88.17
2018-10-17T15:03:24.887Z,88.75
2018-10-17T15:04:34.694Z,88.56
2018-10-17T15:05:44.792Z,88.37
2018-10-17T15:06:54.884Z,88.85
2018-10-17T15:08:05.714Z,88.65
2018-10-17T15:09:16.029Z,88.56
2018-10-17T15:10:27.111Z,88.37
2018-10-17T15:11:38.257Z,88.56
2018-10-17T15:12:49.153Z,88.61
2018-10-17T15:13:59.238Z,88.75
2018-10-17T15:15:09.480Z,88.32
2018-10-17T15:16:19.646Z,88.51
2018-10-17T15:17:29.972Z,88.42
2018-10-17T15:18:40.073Z,88.51
2018-10-17T15:19:50.180Z,88.56
2018-10-17T15:21:00.436Z,88.42
2018-10-17T15:22:10.984Z,88.51
2018-10-17T15:23:21.077Z,88.51
2018-10-17T15:24:31.285Z,88.51
2018-10-17T15:25:41.383Z,88.51
2018-10-17T15:26:51.255Z,88.42
2018-10-17T15:28:01.485Z,88.51
2018-10-17T15:29:11.607Z,88.42
2018-10-17T15:30:21.663Z,88.42
2018-10-17T15:31:32.058Z,88.51
2018-10-17T15:32:42.446Z,88.51
2018-10-17T15:33:52.533Z,88.61
2018-10-17T15:35:02.380Z,88.51
2018-10-17T15:36:12.771Z,88.42
2018-10-17T15:37:23.484Z,88.13
2018-10-17T15:38:33.329Z,88.13
2018-10-17T15:39:43.413Z,88.51